createdAt,value
2019-06-20T00:00:52.947Z,22.60
2019-06-20T00:03:25.449Z,22.70
2019-06-20T00:05:56.251Z,22.60
2019-06-20T00:08:27.599Z,22.50
2019-06-20T00:10:58.660Z,22.50
2019-06-20T00:13:30.465Z,22.40
2019-06-20T00:16:01.792Z,22.30
2019-06-20T00:18:32.838Z,22.20
2019-06-20T00:21:04.078Z,22.20
2019-06-20T00:23:35.226Z,22.20
2019-06-20T00:26:06.397Z,22.20
2019-06-20T00:28:37.828Z,22.20
2019-06-20T00:31:08.794Z,22.10
2019-06-20T00:33:39.772Z,22.10
2019-06-20T00:36:10.736Z,22.10
2019-06-20T00:38:42.434Z,22.00
2019-06-20T00:41:14.460Z,22.00
2019-06-20T00:43:45.679Z,22.10
2019-06-20T00:46:16.945Z,22.10
2019-06-20T00:48:49.339Z,22.00
2019-06-20T00:51:20.693Z,22.00
2019-06-20T00:53:52.012Z,21.90
2019-06-20T00:56:23.397Z,21.90
2019-06-20T00:58:55.138Z,21.90
2019-06-20T01:01:26.180Z,21.90
2019-06-20T01:03:57.917Z,21.90
2019-06-20T01:06:28.731Z,22.00
2019-06-20T01:09:00.527Z,22.10
2019-06-20T01:11:32.724Z,22.00
2019-06-20T01:14:03.896Z,21.90
2019-06-20T01:16:34.696Z,21.90
2019-06-20T01:19:06.761Z,21.90
2019-06-20T01:21:37.571Z,21.90
2019-06-20T01:24:09.219Z,21.90
2019-06-20T01:26:40.974Z,21.80
2019-06-20T01:29:12.365Z,21.80
2019-06-20T01:31:43.672Z,21.70
2019-06-20T01:34:15.011Z,21.60
2019-06-20T01:36:46.046Z,21.50
2019-06-20T01:39:17.144Z,21.40
2019-06-20T01:41:47.893Z,21.40
2019-06-20T01:44:19.662Z,21.20
2019-06-20T01:46:50.961Z,21.20
2019-06-20T01:49:21.777Z,21.20
2019-06-20T01:51:53.232Z,21.10
2019-06-20T01:54:24.566Z,21.10
2019-06-20T01:56:55.992Z,21.10
2019-06-20T01:59:27.262Z,21.10
2019-06-20T02:01:58.025Z,21.10
2019-06-20T02:04:29.078Z,21.10
2019-06-20T02:07:00.131Z,21.10
2019-06-20T02:09:31.593Z,21.20
2019-06-20T02:12:02.425Z,21.20
2019-06-20T02:14:33.700Z,21.20
2019-06-20T02:17:04.813Z,21.30
2019-06-20T02:19:35.547Z,21.30
2019-06-20T02:22:06.330Z,21.30
2019-06-20T02:24:37.376Z,21.30
2019-06-20T02:27:08.738Z,21.20
2019-06-20T02:29:39.756Z,21.20
2019-06-20T02:32:10.785Z,21.10
2019-06-20T02:34:41.777Z,21.10
2019-06-20T02:37:12.741Z,21.00
2019-06-20T02:39:44.191Z,21.00
2019-06-20T02:42:15.575Z,21.00
2019-06-20T02:44:47.020Z,20.90
2019-06-20T02:47:18.765Z,20.80
2019-06-20T02:49:50.301Z,20.70
2019-06-20T02:52:23.575Z,20.60
2019-06-20T02:54:54.992Z,20.60
2019-06-20T02:57:26.579Z,20.50
2019-06-20T02:59:59.196Z,20.50
2019-06-20T03:02:30.189Z,20.50
2019-06-20T03:05:01.913Z,20.50
2019-06-20T03:07:33.558Z,20.40
2019-06-20T03:10:05.336Z,20.30
2019-06-20T03:12:36.756Z,20.30
2019-06-20T03:15:08.719Z,20.30
2019-06-20T03:17:40.331Z,20.40
2019-06-20T03:20:12.253Z,20.40
2019-06-20T03:22:43.578Z,20.50
2019-06-20T03:25:16.857Z,20.50
2019-06-20T03:27:48.333Z,20.50
2019-06-20T03:30:20.144Z,20.50
2019-06-20T03:32:51.644Z,20.60
2019-06-20T03:35:22.979Z,20.60
2019-06-20T03:37:54.123Z,20.60
2019-06-20T03:40:25.273Z,20.60
2019-06-20T03:42:56.617Z,20.60
2019-06-20T03:45:28.077Z,20.50
2019-06-20T03:47:59.161Z,20.50
2019-06-20T03:50:30.451Z,20.50
2019-06-20T03:53:01.528Z,20.60
2019-06-20T03:55:33.395Z,20.60
2019-06-20T03:58:04.603Z,20.60
2019-06-20T04:00:37.112Z,20.50
2019-06-20T04:03:08.347Z,20.50
2019-06-20T04:05:39.282Z,20.20
2019-06-20T04:08:10.813Z,20.20
2019-06-20T04:10:42.393Z,20.10
2019-06-20T04:13:13.901Z,20.10
2019-06-20T04:15:45.245Z,20.00
2019-06-20T04:18:16.633Z,20.00
2019-06-20T04:20:47.915Z,20.00
2019-06-20T04:23:18.885Z,20.00
2019-06-20T04:25:49.856Z,20.00
2019-06-20T04:28:21.535Z,20.00
2019-06-20T04:30:52.963Z,20.10
2019-06-20T04:33:24.263Z,20.10
2019-06-20T04:35:55.847Z,20.10
2019-06-20T04:38:26.917Z,20.20
2019-06-20T04:40:58.310Z,20.30
2019-06-20T04:43:30.520Z,20.20
2019-06-20T04:46:10.324Z,20.00
2019-06-20T04:48:41.650Z,19.80
2019-06-20T04:51:12.740Z,19.70
2019-06-20T04:53:44.082Z,19.70
2019-06-20T04:56:14.991Z,19.70
2019-06-20T04:58:46.066Z,19.70
2019-06-20T05:01:17.352Z,19.70
2019-06-20T05:03:48.764Z,19.80
2019-06-20T05:06:20.320Z,19.80
2019-06-20T05:08:51.615Z,19.80
2019-06-20T05:11:22.783Z,19.70
2019-06-20T05:13:54.331Z,19.60
2019-06-20T05:16:25.530Z,19.60
2019-06-20T05:18:56.564Z,19.60
2019-06-20T05:21:28.061Z,19.70
2019-06-20T05:23:59.589Z,19.70
2019-06-20T05:26:30.883Z,19.70
2019-06-20T05:29:05.395Z,19.80
2019-06-20T05:31:35.482Z,19.80
2019-06-20T05:34:06.599Z,19.90
2019-06-20T05:36:37.878Z,19.90
2019-06-20T05:39:09.060Z,19.90
2019-06-20T05:41:40.830Z,19.90
2019-06-20T05:44:12.026Z,20.00
2019-06-20T05:46:42.795Z,20.00
2019-06-20T05:49:14.290Z,20.00
2019-06-20T05:51:45.257Z,20.10
2019-06-20T05:54:16.840Z,20.10
2019-06-20T05:56:47.616Z,20.20
2019-06-20T05:59:19.445Z,20.20
2019-06-20T06:01:50.479Z,20.20
2019-06-20T06:04:21.525Z,20.30
2019-06-20T06:06:52.866Z,20.30
2019-06-20T06:09:23.868Z,20.30
2019-06-20T06:11:54.901Z,20.30
2019-06-20T06:14:26.383Z,20.40
2019-06-20T06:16:57.428Z,20.30
2019-06-20T06:19:28.747Z,20.40
2019-06-20T06:21:59.525Z,20.40
2019-06-20T06:24:30.961Z,20.50
2019-06-20T06:27:02.223Z,20.50
2019-06-20T06:29:33.223Z,20.40
2019-06-20T06:32:04.392Z,20.40
2019-06-20T06:34:35.946Z,20.50
2019-06-20T06:37:06.874Z,20.60
2019-06-20T06:39:38.273Z,20.60
2019-06-20T06:42:09.434Z,20.60
2019-06-20T06:44:40.838Z,20.60
2019-06-20T06:47:12.002Z,20.80
2019-06-20T06:49:43.071Z,20.80
2019-06-20T06:52:14.661Z,20.90
2019-06-20T06:54:45.422Z,21.10
2019-06-20T06:57:17.883Z,21.30
2019-06-20T06:59:48.681Z,21.50
2019-06-20T07:02:20.058Z,21.70
2019-06-20T07:04:51.406Z,21.70
2019-06-20T07:07:22.435Z,21.90
2019-06-20T07:09:53.573Z,22.10
2019-06-20T07:12:24.828Z,22.40
2019-06-20T07:14:55.805Z,22.60
2019-06-20T07:17:26.794Z,22.60
2019-06-20T07:19:57.513Z,22.70
2019-06-20T07:22:28.979Z,22.80
2019-06-20T07:24:59.938Z,23.00
2019-06-20T07:27:31.153Z,23.10
2019-06-20T07:30:02.351Z,23.30
2019-06-20T07:32:33.419Z,23.50
2019-06-20T07:35:04.672Z,23.30
2019-06-20T07:37:35.421Z,23.20
2019-06-20T07:40:08.262Z,23.20
2019-06-20T07:42:39.900Z,23.40
2019-06-20T07:45:11.795Z,23.60
2019-06-20T07:47:43.082Z,23.80
2019-06-20T07:50:14.748Z,24.00
2019-06-20T07:53:00.820Z,24.00
2019-06-20T07:55:19.493Z,24.00
2019-06-20T07:57:50.569Z,24.30
2019-06-20T08:00:21.841Z,24.60
2019-06-20T08:02:52.890Z,24.50
2019-06-20T08:05:24.159Z,24.80
2019-06-20T08:07:55.172Z,24.60
2019-06-20T08:10:27.637Z,24.50
2019-06-20T08:12:59.108Z,24.40
2019-06-20T08:15:30.528Z,24.60
2019-06-20T08:18:02.025Z,24.50
2019-06-20T08:20:33.163Z,24.60
2019-06-20T08:23:04.197Z,24.40
2019-06-20T08:25:35.140Z,23.90
2019-06-20T08:28:06.638Z,23.90
2019-06-20T08:30:38.361Z,24.00
2019-06-20T08:33:12.151Z,23.90
2019-06-20T08:35:42.857Z,23.90
2019-06-20T08:38:14.784Z,23.70
2019-06-20T08:40:45.528Z,23.60
2019-06-20T08:43:17.224Z,23.70
2019-06-20T08:45:48.190Z,23.70
2019-06-20T08:48:19.417Z,23.60
2019-06-20T08:50:50.182Z,23.70
2019-06-20T08:53:21.274Z,23.90
2019-06-20T08:55:52.289Z,24.00
2019-06-20T08:58:23.510Z,24.10
2019-06-20T09:00:55.982Z,24.20
2019-06-20T09:03:27.950Z,24.00
2019-06-20T09:05:59.725Z,24.00
2019-06-20T09:08:31.166Z,24.00
2019-06-20T09:11:02.135Z,24.10
2019-06-20T09:13:33.367Z,24.10
2019-06-20T09:16:04.498Z,24.20
2019-06-20T09:18:35.909Z,24.10
2019-06-20T09:21:06.750Z,24.00
2019-06-20T09:23:38.397Z,23.90
2019-06-20T09:26:09.784Z,23.80
2019-06-20T09:28:40.636Z,24.00
2019-06-20T09:31:12.210Z,24.00
2019-06-20T09:33:43.290Z,24.00
2019-06-20T09:36:14.629Z,24.20
2019-06-20T09:38:45.986Z,24.30
2019-06-20T09:41:16.738Z,24.70
2019-06-20T09:43:47.755Z,25.00
2019-06-20T09:46:18.630Z,25.10
2019-06-20T09:48:51.100Z,25.20
2019-06-20T09:51:22.999Z,25.30
2019-06-20T09:53:53.917Z,25.40
2019-06-20T09:56:25.200Z,25.80
2019-06-20T09:58:55.928Z,25.80
2019-06-20T10:01:26.963Z,25.90
2019-06-20T10:03:58.284Z,26.00
2019-06-20T10:06:29.676Z,26.00
2019-06-20T10:09:01.091Z,26.20
2019-06-20T10:11:33.804Z,26.30
2019-06-20T10:14:05.274Z,26.20
2019-06-20T10:16:45.691Z,26.50
2019-06-20T10:19:09.704Z,26.70
2019-06-20T10:21:40.745Z,26.60
2019-06-20T10:24:11.868Z,26.50
2019-06-20T10:26:45.078Z,26.50
2019-06-20T10:29:16.858Z,26.50
2019-06-20T10:31:49.023Z,26.50
2019-06-20T10:34:20.031Z,26.40
2019-06-20T10:36:52.416Z,26.30
2019-06-20T10:39:23.569Z,26.10
2019-06-20T10:41:54.406Z,26.10
2019-06-20T10:44:25.607Z,26.00
2019-06-20T10:46:56.853Z,25.80
2019-06-20T10:49:27.812Z,25.80
2019-06-20T10:51:58.783Z,25.80
2019-06-20T10:54:29.525Z,25.80
2019-06-20T10:57:00.530Z,25.80
2019-06-20T10:59:32.136Z,25.90
2019-06-20T11:02:06.481Z,25.90
2019-06-20T11:04:36.404Z,25.90
2019-06-20T11:07:07.495Z,26.20
2019-06-20T11:09:39.624Z,26.20
2019-06-20T11:12:10.979Z,26.40
2019-06-20T11:14:42.173Z,26.30
2019-06-20T11:17:13.249Z,26.30
2019-06-20T11:19:45.769Z,26.60
2019-06-20T11:22:17.205Z,26.60
2019-06-20T11:24:48.527Z,26.50
2019-06-20T11:27:19.862Z,26.80
2019-06-20T11:29:51.086Z,26.70
2019-06-20T11:32:22.655Z,26.80
2019-06-20T11:34:53.419Z,26.80
2019-06-20T11:37:24.729Z,26.60
2019-06-20T11:39:56.299Z,26.90
2019-06-20T11:42:27.813Z,27.00
2019-06-20T11:44:58.955Z,26.80
2019-06-20T11:47:30.611Z,26.80
2019-06-20T11:50:01.340Z,26.90
2019-06-20T11:52:35.950Z,26.80
2019-06-20T11:55:05.865Z,26.70
2019-06-20T11:57:37.995Z,27.00
2019-06-20T12:00:09.676Z,27.00
2019-06-20T12:02:42.770Z,27.20
2019-06-20T12:05:13.975Z,26.90
2019-06-20T12:07:47.160Z,27.00
2019-06-20T12:10:19.236Z,26.90
2019-06-20T12:12:50.014Z,26.80
2019-06-20T12:15:21.363Z,26.80
2019-06-20T12:17:52.121Z,26.90
2019-06-20T12:20:24.971Z,27.50
2019-06-20T12:22:56.184Z,27.40
2019-06-20T12:25:29.061Z,27.40
2019-06-20T12:28:00.579Z,27.30
2019-06-20T12:30:31.635Z,27.70
2019-06-20T12:33:03.098Z,27.90
2019-06-20T12:35:34.817Z,27.50
2019-06-20T12:38:05.879Z,27.50
2019-06-20T12:40:39.141Z,27.50
2019-06-20T12:43:09.750Z,27.80
2019-06-20T12:45:42.876Z,27.70
2019-06-20T12:48:15.584Z,27.40
2019-06-20T12:50:47.611Z,27.50
2019-06-20T12:53:18.682Z,27.40
2019-06-20T12:55:50.749Z,27.20
2019-06-20T12:58:21.988Z,27.20
2019-06-20T13:00:53.048Z,27.30
2019-06-20T13:03:23.876Z,27.50
2019-06-20T13:05:54.820Z,27.30
2019-06-20T13:08:26.055Z,27.50
2019-06-20T13:10:57.037Z,27.70
2019-06-20T13:13:28.077Z,27.60
2019-06-20T13:15:59.055Z,27.60
2019-06-20T13:18:30.576Z,27.70
2019-06-20T13:21:01.768Z,28.00
2019-06-20T13:23:33.126Z,27.90
2019-06-20T13:26:04.270Z,27.90
2019-06-20T13:28:51.009Z,28.10
2019-06-20T13:31:09.517Z,27.70
2019-06-20T13:33:42.357Z,27.60
2019-06-20T13:36:13.126Z,27.50
2019-06-20T13:38:44.771Z,27.50
2019-06-20T13:41:15.775Z,27.40
2019-06-20T13:43:47.173Z,27.30
2019-06-20T13:46:18.354Z,27.20
2019-06-20T13:48:49.980Z,27.50
2019-06-20T13:51:21.886Z,27.40
2019-06-20T13:53:52.860Z,27.60
2019-06-20T13:56:23.927Z,27.10
2019-06-20T13:58:55.250Z,27.20
2019-06-20T14:01:26.868Z,27.10
2019-06-20T14:03:58.407Z,27.20
2019-06-20T14:06:29.821Z,26.90
2019-06-20T14:09:01.410Z,26.90
2019-06-20T14:11:34.396Z,27.00
2019-06-20T14:14:05.746Z,26.90
2019-06-20T14:16:37.606Z,27.00
2019-06-20T14:19:08.427Z,27.30
2019-06-20T14:21:39.721Z,27.40
2019-06-20T14:24:10.819Z,27.60
2019-06-20T14:26:44.737Z,27.70
2019-06-20T14:29:15.131Z,27.70
2019-06-20T14:31:47.245Z,27.50
2019-06-20T14:34:18.578Z,27.50
2019-06-20T14:36:50.917Z,27.20
2019-06-20T14:39:22.397Z,27.20
2019-06-20T14:41:55.240Z,27.10
2019-06-20T14:44:26.555Z,27.30
2019-06-20T14:46:59.382Z,27.30
2019-06-20T14:49:31.051Z,27.60
2019-06-20T14:52:02.056Z,27.60
2019-06-20T14:54:33.043Z,27.70
2019-06-20T14:57:03.859Z,27.80
2019-06-20T14:59:35.493Z,27.40
2019-06-20T15:02:07.014Z,27.30
2019-06-20T15:04:38.712Z,27.30
2019-06-20T15:07:09.473Z,27.20
2019-06-20T15:09:41.337Z,27.20
2019-06-20T15:12:12.659Z,27.00
2019-06-20T15:14:44.482Z,27.00
2019-06-20T15:17:16.718Z,26.90
2019-06-20T15:19:49.449Z,26.90
2019-06-20T15:22:20.733Z,26.90
2019-06-20T15:24:53.610Z,26.90
2019-06-20T15:27:24.818Z,27.00
2019-06-20T15:29:56.565Z,26.90
2019-06-20T15:32:27.252Z,26.90
2019-06-20T15:35:01.697Z,26.90
2019-06-20T15:37:31.368Z,27.00
2019-06-20T15:40:02.537Z,27.10
2019-06-20T15:42:34.390Z,27.10
2019-06-20T15:45:05.774Z,27.20
2019-06-20T15:47:37.079Z,26.90
2019-06-20T15:50:08.372Z,26.80
2019-06-20T15:52:40.405Z,26.70
2019-06-20T15:55:12.089Z,26.40
2019-06-20T15:57:43.356Z,26.40
2019-06-20T16:00:15.054Z,26.20
2019-06-20T16:02:46.556Z,26.20
2019-06-20T16:05:18.680Z,26.20
2019-06-20T16:07:49.904Z,26.20
2019-06-20T16:10:21.368Z,26.20
2019-06-20T16:12:52.736Z,26.20
2019-06-20T16:15:24.434Z,26.00
2019-06-20T16:17:55.690Z,26.00
2019-06-20T16:20:26.738Z,26.00
2019-06-20T16:22:57.507Z,25.90
2019-06-20T16:25:28.962Z,25.90
2019-06-20T16:28:00.069Z,25.80
2019-06-20T16:30:33.727Z,25.70
2019-06-20T16:33:04.717Z,25.80
2019-06-20T16:35:36.902Z,25.80
2019-06-20T16:38:08.064Z,25.70
2019-06-20T16:40:57.063Z,25.70
2019-06-20T16:43:28.043Z,25.60
2019-06-20T16:45:59.060Z,25.70
2019-06-20T16:48:30.897Z,25.60
2019-06-20T16:51:03.451Z,25.50
2019-06-20T16:53:34.521Z,25.40
2019-06-20T16:56:05.706Z,25.40
2019-06-20T16:58:37.328Z,25.30
2019-06-20T17:01:08.383Z,25.30
2019-06-20T17:03:41.976Z,25.30
2019-06-20T17:06:12.310Z,25.10
2019-06-20T17:08:43.458Z,25.10
2019-06-20T17:11:14.299Z,25.00
2019-06-20T17:13:45.145Z,25.10
2019-06-20T17:16:16.148Z,25.00
2019-06-20T17:18:47.702Z,24.80
2019-06-20T17:21:18.804Z,24.60
2019-06-20T17:23:49.791Z,24.60
2019-06-20T17:26:20.521Z,24.50
2019-06-20T17:28:51.894Z,24.60
2019-06-20T17:31:23.514Z,24.60
2019-06-20T17:33:57.735Z,24.60
2019-06-20T17:36:27.949Z,24.50
2019-06-20T17:38:58.941Z,24.50
2019-06-20T17:41:29.959Z,24.50
2019-06-20T17:44:01.225Z,24.50
2019-06-20T17:46:32.528Z,24.40
2019-06-20T17:49:04.203Z,24.40
2019-06-20T17:51:35.347Z,24.40
2019-06-20T17:54:06.840Z,24.40
2019-06-20T17:56:37.883Z,24.30
2019-06-20T17:59:09.412Z,24.30
2019-06-20T18:01:40.925Z,24.20
2019-06-20T18:04:14.068Z,24.20
2019-06-20T18:06:45.502Z,24.00
2019-06-20T18:09:16.934Z,23.90
2019-06-20T18:11:48.679Z,23.80
2019-06-20T18:14:19.651Z,23.80
2019-06-20T18:16:50.960Z,23.70
2019-06-20T18:19:22.517Z,23.80
2019-06-20T18:21:54.078Z,23.70
2019-06-20T18:24:25.696Z,23.70
2019-06-20T18:26:57.208Z,23.70
2019-06-20T18:29:28.733Z,23.70
2019-06-20T18:31:59.781Z,23.70
2019-06-20T18:34:30.684Z,23.70
2019-06-20T18:37:01.487Z,23.60
2019-06-20T18:39:32.621Z,23.50
2019-06-20T18:42:03.809Z,23.50
2019-06-20T18:44:35.375Z,23.40
2019-06-20T18:47:06.158Z,23.30
2019-06-20T18:49:36.953Z,23.30
2019-06-20T18:52:08.537Z,23.30
2019-06-20T18:54:39.579Z,23.40
2019-06-20T18:57:10.661Z,23.40
2019-06-20T18:59:42.004Z,23.50
2019-06-20T19:02:13.335Z,23.40
2019-06-20T19:04:49.514Z,23.20
2019-06-20T19:07:19.880Z,23.10
2019-06-20T19:09:51.321Z,23.00
2019-06-20T19:12:22.886Z,23.00
2019-06-20T19:14:54.499Z,23.00
2019-06-20T19:17:26.081Z,23.00
2019-06-20T19:19:57.508Z,22.90
2019-06-20T19:22:29.087Z,22.90
2019-06-20T19:25:03.694Z,22.90
2019-06-20T19:27:45.582Z,22.90
2019-06-20T19:30:06.969Z,22.90
2019-06-20T19:32:37.778Z,22.90
2019-06-20T19:35:10.584Z,22.90
2019-06-20T19:37:41.672Z,22.90
2019-06-20T19:40:14.328Z,22.90
2019-06-20T19:42:46.730Z,22.80
2019-06-20T19:45:18.181Z,22.80
2019-06-20T19:47:49.204Z,22.80
2019-06-20T19:50:20.867Z,22.70
2019-06-20T19:52:55.730Z,22.70
2019-06-20T19:55:27.104Z,22.70
2019-06-20T19:57:58.701Z,22.60
2019-06-20T20:00:29.750Z,22.50
2019-06-20T20:03:01.487Z,22.40
2019-06-20T20:05:33.210Z,22.40
2019-06-20T20:08:04.368Z,22.40
2019-06-20T20:10:46.964Z,22.40
2019-06-20T20:13:18.508Z,22.40
2019-06-20T20:15:49.631Z,22.30
2019-06-20T20:18:20.774Z,22.30
2019-06-20T20:20:52.170Z,22.20
2019-06-20T20:23:23.616Z,22.10
2019-06-20T20:25:54.669Z,22.10
2019-06-20T20:28:26.009Z,22.00
2019-06-20T20:30:59.596Z,21.90
2019-06-20T20:33:39.366Z,21.90
2019-06-20T20:36:23.932Z,22.00
2019-06-20T20:38:43.983Z,22.00
2019-06-20T20:41:19.842Z,22.00
2019-06-20T20:43:51.184Z,22.00
2019-06-20T20:46:22.614Z,21.90
2019-06-20T20:48:53.710Z,21.90
2019-06-20T20:51:24.835Z,21.80
2019-06-20T20:53:56.027Z,21.70
2019-06-20T20:56:27.486Z,21.60
2019-06-20T20:58:58.682Z,21.60
2019-06-20T21:01:35.323Z,21.60
2019-06-20T21:04:05.154Z,21.70
2019-06-20T21:06:36.224Z,21.60
2019-06-20T21:09:09.217Z,21.60
2019-06-20T21:11:41.450Z,21.50
2019-06-20T21:14:12.634Z,21.50
2019-06-20T21:16:43.685Z,21.30
2019-06-20T21:19:14.980Z,21.20
2019-06-20T21:21:45.993Z,21.20
2019-06-20T21:24:17.800Z,21.20
2019-06-20T21:26:50.278Z,21.10
2019-06-20T21:29:22.107Z,21.10
2019-06-20T21:31:53.630Z,21.00
2019-06-20T21:34:25.008Z,21.00
2019-06-20T21:36:56.320Z,21.00
2019-06-20T21:39:27.253Z,21.00
2019-06-20T21:41:59.018Z,21.10
2019-06-20T21:44:29.834Z,21.10
2019-06-20T21:47:00.922Z,21.10
2019-06-20T21:49:33.502Z,21.20
2019-06-20T21:52:04.593Z,21.20
2019-06-20T21:54:35.445Z,21.00
2019-06-20T21:57:06.575Z,21.00
2019-06-20T21:59:37.966Z,21.00
2019-06-20T22:02:09.762Z,21.00
2019-06-20T22:04:53.801Z,21.00
2019-06-20T22:07:13.207Z,21.00
2019-06-20T22:09:44.694Z,21.00
2019-06-20T22:12:15.793Z,21.00
2019-06-20T22:14:49.398Z,21.00
2019-06-20T22:17:21.191Z,20.90
2019-06-20T22:19:52.241Z,20.80
2019-06-20T22:22:23.048Z,20.70
2019-06-20T22:24:54.299Z,20.70
2019-06-20T22:27:25.033Z,20.70
2019-06-20T22:29:55.793Z,20.60
2019-06-20T22:32:26.937Z,20.50
2019-06-20T22:34:58.252Z,20.30
2019-06-20T22:37:29.828Z,20.30
2019-06-20T22:40:01.168Z,20.40
2019-06-20T22:42:32.144Z,20.30
2019-06-20T22:45:06.917Z,20.30
2019-06-20T22:47:36.165Z,20.30
2019-06-20T22:50:09.022Z,20.20
2019-06-20T22:52:40.149Z,20.20
2019-06-20T22:55:11.410Z,20.20
2019-06-20T22:57:42.817Z,20.20
2019-06-20T23:00:14.687Z,20.10
2019-06-20T23:02:45.707Z,20.10
2019-06-20T23:05:16.907Z,20.00
2019-06-20T23:07:47.615Z,20.00
2019-06-20T23:10:19.129Z,20.00
2019-06-20T23:12:49.864Z,20.00
2019-06-20T23:15:21.444Z,19.90
2019-06-20T23:17:52.168Z,19.90
2019-06-20T23:20:24.153Z,19.90
2019-06-20T23:22:55.364Z,19.90
2019-06-20T23:25:26.628Z,19.80
2019-06-20T23:27:58.046Z,19.80
2019-06-20T23:30:29.467Z,19.80
2019-06-20T23:33:00.691Z,19.70
2019-06-20T23:35:31.666Z,19.70
2019-06-20T23:38:02.643Z,19.80
2019-06-20T23:40:34.033Z,19.80
2019-06-20T23:43:05.244Z,19.80
2019-06-20T23:45:36.672Z,19.70
2019-06-20T23:48:08.040Z,19.70
2019-06-20T23:50:39.431Z,19.60
2019-06-20T23:53:17.020Z,19.50
2019-06-20T23:55:49.614Z,19.40
2019-06-20T23:58:20.603Z,19.40
